首页
METAR-TAF:

METAR-TAF

机场 :

布里斯托機場

布里斯托尔, 英格兰

纬度: 51-23N, 经度: 002-43W, 海拔: 189米

当前天气观测

该预报发布于17分钟前的12:20 UTC
风速8节,风向东转东南
温度 21°C
湿度 49%
气压 1023 hPa
能见度10公里或以上

METAR: EGGD 101220Z AUTO 12008KT 9999 NCD 21/10 Q1023

时间: 13:37 (12:37 UTC)

预报

该预报发布于1小时和36分钟前的11:01 UTC
预报有效从10日的 12点(UTC)到 11日的 12点(UTC)
风速8节,风向东转东南
能见度10公里或以上
1500米以下无云,无积雨云
几率 30%
从 11日的 00点(UTC)到 11日的 09点(UTC)
能見度: 6000

TAF: EGGD 101101Z 1012/1112 12008KT CAVOK PROB30 1100/1109 6000

超过4000个机场的气象观测和天气预报(METAR&TAF报告)。

可查询的气象台以黄色和红色小点在地图上表示。

将鼠标移到小点上方,可查看气象台名称。

然后点击查看天气观测和预报。

如需切换地图:点击带黑十字的绿色按钮放大地图;点击带横线的绿色按钮缩小地图;或者点击绿色箭头查看邻近地区的地图。


METAR-TAF: